Meath Environmental Platform

Observations for Trim Market St

Time AQI Temp °C Hum % Pres Pa CO μg/m³ H₂S μg/m³ NO μg/m³ NO₂ μg/m³ O₃ μg/m³ SO₂ μg/m³ PM1 μg/m³ PM2.5 μg/m³ PM10 μg/m³
Tuesday 14 July 2026
12:28 1 33.6 29 66,309 0 0 0 0 40.49 0 1.43 4.44 4.89
12:27 1 33.7 29 66,297 0 0 0 0 39.92 0 2.14 4.99 5.48
12:19 1 34.1 29 66,349 0 0 0 0 27.51 0 1.43 4.42 4.92
12:16 1 33.9 30 66,351 0 0 0 0 31.64 0 1.43 5.49 6.66
12:15 1 33.9 30 66,343 0 0 0 0 25.66 0 0 3.31 3.64
12:11 1 33.7 30 66,325 0 0 0 0 39.17 0 2.14 4.94 5.44
12:08 1 33.7 30 66,325 0 0 0 0 34.35 0 1.43 4.4 4.93
12:07 1 33.7 30 66,317 0 0 0 0 19.69 0 2.14 5.47 6.01
12:06 1 33.7 30 66,307 0 0 0 0 42.82 0 2.14 6.01 6.61
12:05 1 33.6 30 66,288 0 0 0 3.67 43.15 0 2.14 4.93 5.42
12:04 1 33.6 30 66,262 0 0 0 0 39.48 0 1.43 4.4 4.93
12:03 1 33.6 30 66,262 0 0 0 0 43.73 0 1.43 5.49 7.52
12:02 1 33.5 30 66,258 0 0 0 0 32.93 0 2.14 4.95 5.45
12:01 1 33.5 30 66,260 0 0 0 0 35.55 0 1.43 5.49 6.04
12:00 1 33.5 30 66,260 0 0 0 0 26.31 0 0.71 4.41 4.85
11:59 1 33.5 30 66,264 0 0 0 0 27.08 0 1.43 5.48 6.03
11:58 1 33.5 30 66,266 0 0 0 0 29.6 0 2.14 6.01 6.66
11:57 1 33.5 30 66,272 0 0 0 0 34.7 0 1.43 4.92 5.41
11:56 1 33.6 31 66,278 0 0 0 0 28.95 0 2.14 5.45 8.39
11:55 1 33.6 31 66,286 0 0 0 0 36.81 0 2.85 5.99 6.59